createdAt,value
2019-05-25T00:00:23.441Z,15.63
2019-05-25T00:03:25.010Z,15.44
2019-05-25T00:06:26.486Z,15.25
2019-05-25T00:09:28.030Z,15.31
2019-05-25T00:12:29.566Z,14.94
2019-05-25T00:15:31.079Z,15.06
2019-05-25T00:18:32.605Z,15.38
2019-05-25T00:21:34.137Z,15.44
2019-05-25T00:24:35.646Z,15.19
2019-05-25T00:27:37.259Z,15.25
2019-05-25T00:30:38.761Z,15.25
2019-05-25T00:33:40.358Z,15.13
2019-05-25T00:36:41.928Z,15.06
2019-05-25T00:39:44.613Z,14.56
2019-05-25T00:42:46.139Z,14.31
2019-05-25T00:45:47.692Z,14.25
2019-05-25T00:48:49.265Z,14.50
2019-05-25T00:51:50.793Z,14.75
2019-05-25T00:54:52.325Z,14.19
2019-05-25T00:57:53.921Z,14.50
2019-05-25T01:00:55.508Z,14.38
2019-05-25T01:03:57.226Z,14.50
2019-05-25T01:06:58.798Z,13.94
2019-05-25T01:10:00.321Z,14.00
2019-05-25T01:13:01.961Z,14.06
2019-05-25T01:16:03.518Z,14.31
2019-05-25T01:19:05.152Z,14.13
2019-05-25T01:22:06.688Z,14.38
2019-05-25T01:25:08.846Z,14.56
2019-05-25T01:28:10.393Z,14.31
2019-05-25T01:31:12.002Z,14.44
2019-05-25T01:34:13.544Z,14.38
2019-05-25T01:37:15.078Z,14.06
2019-05-25T01:40:16.812Z,13.88
2019-05-25T01:43:18.307Z,13.94
2019-05-25T01:46:19.833Z,14.13
2019-05-25T01:49:21.402Z,14.31
2019-05-25T01:52:22.944Z,14.44
2019-05-25T01:55:24.494Z,14.50
2019-05-25T01:58:26.036Z,14.19
2019-05-25T02:01:27.718Z,14.13
2019-05-25T02:04:29.303Z,14.25
2019-05-25T02:07:30.929Z,14.25
2019-05-25T02:10:32.433Z,14.13
2019-05-25T02:13:34.040Z,13.88
2019-05-25T02:16:35.597Z,13.69
2019-05-25T02:19:37.184Z,13.69
2019-05-25T02:22:38.669Z,14.00
2019-05-25T02:25:40.206Z,13.69
2019-05-25T02:28:41.718Z,13.50
2019-05-25T02:31:43.281Z,13.38
2019-05-25T02:34:44.783Z,13.50
2019-05-25T02:37:46.325Z,13.94
2019-05-25T02:40:47.865Z,13.75
2019-05-25T02:43:49.413Z,13.56
2019-05-25T02:46:50.914Z,13.56
2019-05-25T02:49:52.486Z,13.81
2019-05-25T02:52:54.062Z,14.06
2019-05-25T02:55:55.580Z,14.06
2019-05-25T02:58:57.212Z,13.50
2019-05-25T03:01:58.766Z,13.56
2019-05-25T03:05:00.291Z,13.62
2019-05-25T03:08:01.825Z,13.62
2019-05-25T03:11:03.551Z,13.94
2019-05-25T03:14:05.816Z,13.81
2019-05-25T03:17:07.415Z,13.75
2019-05-25T03:20:09.120Z,13.50
2019-05-25T03:23:10.689Z,13.81
2019-05-25T03:26:12.195Z,13.88
2019-05-25T03:29:14.271Z,13.44
2019-05-25T03:32:15.835Z,13.50
2019-05-25T03:35:17.459Z,13.75
2019-05-25T03:38:19.040Z,13.88
2019-05-25T03:41:20.547Z,13.81
2019-05-25T03:44:22.089Z,13.75
2019-05-25T03:47:23.657Z,13.38
2019-05-25T03:50:26.185Z,13.56
2019-05-25T03:53:27.792Z,13.62
2019-05-25T03:56:29.307Z,13.19
2019-05-25T03:59:30.936Z,13.06
2019-05-25T04:02:32.580Z,13.44
2019-05-25T04:05:34.119Z,13.44
2019-05-25T04:08:35.671Z,13.13
2019-05-25T04:11:37.194Z,13.19
2019-05-25T04:14:38.712Z,13.19
2019-05-25T04:17:40.324Z,13.25
2019-05-25T04:20:41.885Z,13.31
2019-05-25T04:23:43.432Z,13.56
2019-05-25T04:26:44.969Z,13.56
2019-05-25T04:29:46.579Z,13.69
2019-05-25T04:32:48.140Z,13.62
2019-05-25T04:35:49.671Z,13.38
2019-05-25T04:38:51.268Z,13.25
2019-05-25T04:41:52.802Z,13.13
2019-05-25T04:44:54.345Z,13.19
2019-05-25T04:47:55.940Z,12.94
2019-05-25T04:50:57.511Z,13.00
2019-05-25T04:53:59.092Z,13.31
2019-05-25T04:57:00.649Z,13.50
2019-05-25T05:00:02.234Z,13.62
2019-05-25T05:03:03.877Z,13.50
2019-05-25T05:06:05.544Z,13.19
2019-05-25T05:09:08.669Z,13.31
2019-05-25T05:12:10.238Z,13.56
2019-05-25T05:15:12.110Z,13.50
2019-05-25T05:18:13.675Z,13.69
2019-05-25T05:21:15.229Z,13.88
2019-05-25T05:24:16.740Z,13.88
2019-05-25T05:27:18.341Z,13.94
2019-05-25T05:30:31.269Z,14.00
2019-05-25T05:33:32.857Z,14.06
2019-05-25T05:36:35.971Z,14.38
2019-05-25T05:39:37.562Z,14.56
2019-05-25T05:42:40.304Z,14.63
2019-05-25T05:45:43.655Z,14.81
2019-05-25T05:48:50.685Z,14.81
2019-05-25T05:51:52.358Z,14.75
2019-05-25T05:54:55.135Z,14.87
2019-05-25T05:57:56.661Z,14.94
2019-05-25T06:00:58.175Z,15.06
2019-05-25T06:03:59.720Z,15.13
2019-05-25T06:07:01.297Z,15.06
2019-05-25T06:10:02.915Z,15.19
2019-05-25T06:13:04.556Z,15.13
2019-05-25T06:16:06.119Z,15.13
2019-05-25T06:19:07.629Z,15.25
2019-05-25T06:22:09.205Z,15.38
2019-05-25T06:25:11.032Z,15.50
2019-05-25T06:28:12.650Z,15.56
2019-05-25T06:31:14.205Z,15.75
2019-05-25T06:34:15.761Z,15.88
2019-05-25T06:37:17.292Z,15.81
2019-05-25T06:40:19.071Z,15.75
2019-05-25T06:43:20.632Z,15.94
2019-05-25T06:46:22.196Z,16.06
2019-05-25T06:49:23.745Z,16.06
2019-05-25T06:52:25.286Z,16.12
2019-05-25T06:55:26.824Z,16.19
2019-05-25T06:58:29.451Z,16.50
2019-05-25T07:01:30.982Z,16.62
2019-05-25T07:04:32.538Z,16.87
2019-05-25T07:07:34.091Z,16.94
2019-05-25T07:10:35.711Z,17.12
2019-05-25T07:13:37.314Z,17.19
2019-05-25T07:16:38.841Z,17.25
2019-05-25T07:19:40.396Z,17.50
2019-05-25T07:22:41.940Z,17.69
2019-05-25T07:25:43.504Z,17.62
2019-05-25T07:28:45.044Z,17.50
2019-05-25T07:31:46.671Z,17.31
2019-05-25T07:34:49.239Z,17.44
2019-05-25T07:37:50.807Z,17.37
2019-05-25T07:40:52.357Z,17.62
2019-05-25T07:43:53.909Z,17.75
2019-05-25T07:46:55.443Z,17.94
2019-05-25T07:49:57.007Z,18.37
2019-05-25T07:52:58.585Z,18.69
2019-05-25T07:56:00.116Z,18.94
2019-05-25T07:59:01.648Z,18.81
2019-05-25T08:02:03.276Z,18.75
2019-05-25T08:05:05.196Z,18.62
2019-05-25T08:08:06.851Z,19.06
2019-05-25T08:11:08.391Z,19.50
2019-05-25T08:14:09.924Z,19.31
2019-05-25T08:17:11.471Z,19.19
2019-05-25T08:20:13.137Z,19.06
2019-05-25T08:23:14.756Z,19.19
2019-05-25T08:26:16.316Z,18.75
2019-05-25T08:29:17.872Z,18.62
2019-05-25T08:32:19.431Z,18.50
2019-05-25T08:35:20.977Z,18.37
2019-05-25T08:38:22.508Z,18.44
2019-05-25T08:41:24.071Z,18.37
2019-05-25T08:44:25.587Z,18.37
2019-05-25T08:47:27.112Z,18.50
2019-05-25T08:50:37.947Z,18.62
2019-05-25T08:53:41.309Z,19.31
2019-05-25T08:56:35.165Z,19.81
2019-05-25T08:59:36.856Z,20.12
2019-05-25T09:02:38.494Z,20.50
2019-05-25T09:05:40.093Z,20.81
2019-05-25T09:08:41.641Z,21.19
2019-05-25T09:11:43.222Z,21.31
2019-05-25T09:14:44.774Z,21.25
2019-05-25T09:17:46.312Z,20.75
2019-05-25T09:20:47.874Z,20.50
2019-05-25T09:23:49.458Z,20.62
2019-05-25T09:26:50.998Z,21.06
2019-05-25T09:29:52.612Z,21.06
2019-05-25T09:32:55.224Z,21.81
2019-05-25T09:35:56.718Z,22.13
2019-05-25T09:38:58.282Z,22.13
2019-05-25T09:41:59.898Z,22.13
2019-05-25T09:45:01.580Z,22.44
2019-05-25T09:48:03.200Z,22.31
2019-05-25T09:51:04.817Z,22.25
2019-05-25T09:54:06.492Z,22.56
2019-05-25T09:57:08.089Z,22.62
2019-05-25T10:00:11.372Z,22.69
2019-05-25T10:03:12.961Z,22.44
2019-05-25T10:06:14.534Z,22.75
2019-05-25T10:09:16.107Z,22.75
2019-05-25T10:12:17.581Z,22.94
2019-05-25T10:15:19.106Z,23.44
2019-05-25T10:18:20.622Z,23.31
2019-05-25T10:21:22.174Z,22.94
2019-05-25T10:24:23.730Z,23.25
2019-05-25T10:27:26.420Z,23.06
2019-05-25T10:30:27.950Z,23.38
2019-05-25T10:33:29.595Z,22.94
2019-05-25T10:36:31.134Z,23.25
2019-05-25T10:39:32.642Z,23.56
2019-05-25T10:42:34.162Z,23.81
2019-05-25T10:45:35.704Z,23.81
2019-05-25T10:48:37.301Z,23.62
2019-05-25T10:51:38.839Z,23.00
2019-05-25T10:54:40.406Z,23.00
2019-05-25T10:57:41.888Z,22.75
2019-05-25T11:00:43.438Z,22.94
2019-05-25T11:03:45.056Z,23.87
2019-05-25T11:06:46.601Z,23.87
2019-05-25T11:09:48.165Z,23.56
2019-05-25T11:12:49.737Z,23.38
2019-05-25T11:15:52.230Z,23.50
2019-05-25T11:18:53.779Z,24.06
2019-05-25T11:21:55.331Z,24.25
2019-05-25T11:24:56.869Z,23.56
2019-05-25T11:27:59.475Z,24.25
2019-05-25T11:31:00.993Z,23.62
2019-05-25T11:34:03.619Z,24.12
2019-05-25T11:37:05.137Z,24.31
2019-05-25T11:40:07.689Z,24.25
2019-05-25T11:43:09.292Z,23.19
2019-05-25T11:46:10.835Z,23.00
2019-05-25T11:49:22.202Z,23.44
2019-05-25T11:52:15.650Z,24.00
2019-05-25T11:55:18.856Z,24.44
2019-05-25T11:58:20.436Z,24.75
2019-05-25T12:01:22.074Z,24.75
2019-05-25T12:04:23.568Z,24.56
2019-05-25T12:07:25.118Z,24.81
2019-05-25T12:10:26.640Z,25.31
2019-05-25T12:13:31.864Z,25.12
2019-05-25T12:16:32.426Z,25.25
2019-05-25T12:19:33.968Z,25.19
2019-05-25T12:22:35.578Z,24.87
2019-05-25T12:25:37.124Z,24.63
2019-05-25T12:28:38.876Z,25.12
2019-05-25T12:31:40.473Z,24.37
2019-05-25T12:34:42.037Z,23.56
2019-05-25T12:37:43.577Z,23.50
2019-05-25T12:40:53.683Z,23.31
2019-05-25T12:43:48.830Z,23.12
2019-05-25T12:46:50.392Z,23.19
2019-05-25T12:49:51.974Z,22.81
2019-05-25T12:52:54.482Z,22.75
2019-05-25T12:55:55.982Z,22.69
2019-05-25T12:58:57.566Z,22.75
2019-05-25T13:01:59.140Z,22.69
2019-05-25T13:05:01.550Z,22.87
2019-05-25T13:08:04.143Z,22.75
2019-05-25T13:11:09.400Z,22.69
2019-05-25T13:14:14.896Z,22.56
2019-05-25T13:17:15.595Z,22.44
2019-05-25T13:20:18.032Z,22.37
2019-05-25T13:23:19.609Z,22.13
2019-05-25T13:26:21.163Z,22.00
2019-05-25T13:29:22.729Z,21.87
2019-05-25T13:32:24.266Z,22.00
2019-05-25T13:35:25.862Z,22.00
2019-05-25T13:38:27.480Z,22.13
2019-05-25T13:41:29.013Z,22.19
2019-05-25T13:44:30.572Z,22.13
2019-05-25T13:47:32.080Z,22.37
2019-05-25T13:50:33.665Z,22.44
2019-05-25T13:53:35.278Z,22.56
2019-05-25T13:56:36.795Z,22.69
2019-05-25T13:59:38.338Z,22.69
2019-05-25T14:02:39.931Z,22.81
2019-05-25T14:05:41.489Z,22.75
2019-05-25T14:08:43.050Z,22.13
2019-05-25T14:11:44.666Z,21.81
2019-05-25T14:14:46.211Z,21.75
2019-05-25T14:17:47.789Z,21.87
2019-05-25T14:20:49.429Z,22.00
2019-05-25T14:23:51.021Z,22.13
2019-05-25T14:26:53.707Z,22.25
2019-05-25T14:29:55.262Z,22.44
2019-05-25T14:32:56.805Z,22.44
2019-05-25T14:35:58.347Z,22.56
2019-05-25T14:38:59.898Z,22.87
2019-05-25T14:42:01.422Z,23.00
2019-05-25T14:45:02.925Z,23.06
2019-05-25T14:48:04.502Z,23.69
2019-05-25T14:51:06.041Z,22.94
2019-05-25T14:54:07.657Z,22.62
2019-05-25T14:57:09.123Z,22.44
2019-05-25T15:00:13.404Z,22.50
2019-05-25T15:03:14.994Z,23.38
2019-05-25T15:06:20.723Z,24.44
2019-05-25T15:09:19.888Z,25.00
2019-05-25T15:12:21.435Z,25.44
2019-05-25T15:15:22.994Z,25.62
2019-05-25T15:18:24.548Z,24.50
2019-05-25T15:21:26.641Z,24.31
2019-05-25T15:24:28.495Z,25.00
2019-05-25T15:27:31.148Z,25.06
2019-05-25T15:30:32.779Z,24.69
2019-05-25T15:33:34.366Z,23.38
2019-05-25T15:36:35.942Z,23.12
2019-05-25T15:39:37.558Z,23.62
2019-05-25T15:42:39.121Z,23.12
2019-05-25T15:45:40.637Z,23.06
2019-05-25T15:48:42.286Z,23.50
2019-05-25T15:51:43.894Z,23.50
2019-05-25T15:54:45.445Z,23.44
2019-05-25T15:57:47.067Z,23.12
2019-05-25T16:00:50.834Z,22.87
2019-05-25T16:03:52.541Z,22.75
2019-05-25T16:06:54.273Z,22.75
2019-05-25T16:09:55.870Z,22.69
2019-05-25T16:12:57.491Z,22.62
2019-05-25T16:15:59.045Z,22.69
2019-05-25T16:19:00.595Z,22.62
2019-05-25T16:22:02.134Z,22.94
2019-05-25T16:25:03.771Z,23.00
2019-05-25T16:28:05.303Z,23.12
2019-05-25T16:31:06.824Z,22.87
2019-05-25T16:34:08.382Z,23.12
2019-05-25T16:37:10.152Z,23.00
2019-05-25T16:40:12.804Z,22.94
2019-05-25T16:43:14.395Z,22.81
2019-05-25T16:46:15.911Z,22.87
2019-05-25T16:49:17.508Z,22.94
2019-05-25T16:52:19.039Z,22.75
2019-05-25T16:55:20.568Z,22.44
2019-05-25T16:58:22.153Z,22.50
2019-05-25T17:01:23.691Z,22.81
2019-05-25T17:04:25.273Z,22.75
2019-05-25T17:07:26.957Z,22.87
2019-05-25T17:10:28.664Z,22.75
2019-05-25T17:13:30.232Z,22.56
2019-05-25T17:16:31.767Z,22.37
2019-05-25T17:19:33.286Z,22.31
2019-05-25T17:22:34.775Z,22.25
2019-05-25T17:25:36.436Z,22.19
2019-05-25T17:28:37.963Z,21.94
2019-05-25T17:31:39.482Z,21.87
2019-05-25T17:34:42.113Z,21.87
2019-05-25T17:37:43.725Z,22.00
2019-05-25T17:40:45.333Z,21.87
2019-05-25T17:43:46.996Z,22.00
2019-05-25T17:46:48.569Z,21.69
2019-05-25T17:49:50.190Z,21.69
2019-05-25T17:52:51.739Z,21.69
2019-05-25T17:55:53.329Z,21.37
2019-05-25T17:58:54.919Z,21.12
2019-05-25T18:01:56.541Z,21.19
2019-05-25T18:04:58.147Z,21.06
2019-05-25T18:07:59.703Z,20.94
2019-05-25T18:11:01.297Z,20.81
2019-05-25T18:14:02.841Z,20.75
2019-05-25T18:17:04.415Z,20.69
2019-05-25T18:20:07.117Z,20.62
2019-05-25T18:23:08.697Z,20.56
2019-05-25T18:26:10.325Z,20.44
2019-05-25T18:29:11.880Z,20.25
2019-05-25T18:32:13.426Z,20.12
2019-05-25T18:35:15.060Z,20.12
2019-05-25T18:38:16.579Z,19.87
2019-05-25T18:41:18.109Z,19.94
2019-05-25T18:44:19.676Z,19.81
2019-05-25T18:47:21.202Z,19.81
2019-05-25T18:50:23.238Z,19.94
2019-05-25T18:53:24.762Z,19.69
2019-05-25T18:56:26.304Z,19.75
2019-05-25T18:59:27.876Z,19.75
2019-05-25T19:02:29.412Z,19.50
2019-05-25T19:05:31.059Z,19.50
2019-05-25T19:08:32.683Z,19.44
2019-05-25T19:11:35.907Z,19.37
2019-05-25T19:14:37.755Z,19.25
2019-05-25T19:17:39.323Z,19.12
2019-05-25T19:20:40.884Z,19.12
2019-05-25T19:23:42.352Z,18.94
2019-05-25T19:26:43.913Z,18.94
2019-05-25T19:29:45.477Z,18.75
2019-05-25T19:32:47.012Z,18.62
2019-05-25T19:35:48.597Z,18.44
2019-05-25T19:38:56.514Z,18.37
2019-05-25T19:41:59.757Z,18.31
2019-05-25T19:45:01.286Z,18.19
2019-05-25T19:48:02.913Z,17.87
2019-05-25T19:51:04.456Z,18.19
2019-05-25T19:54:07.108Z,18.12
2019-05-25T19:57:08.627Z,18.06
2019-05-25T20:00:12.118Z,18.00
2019-05-25T20:03:13.651Z,17.62
2019-05-25T20:06:15.220Z,17.62
2019-05-25T20:09:16.754Z,17.50
2019-05-25T20:12:18.281Z,17.50
2019-05-25T20:15:19.997Z,17.19
2019-05-25T20:18:21.501Z,17.31
2019-05-25T20:21:23.033Z,17.25
2019-05-25T20:24:24.548Z,17.44
2019-05-25T20:27:26.060Z,17.37
2019-05-25T20:30:28.790Z,17.25
2019-05-25T20:33:34.482Z,17.12
2019-05-25T20:36:33.679Z,17.06
2019-05-25T20:39:35.217Z,17.19
2019-05-25T20:42:36.825Z,17.25
2019-05-25T20:45:38.347Z,16.69
2019-05-25T20:48:40.978Z,16.87
2019-05-25T20:51:42.661Z,16.50
2019-05-25T20:54:44.281Z,16.50
2019-05-25T20:57:45.924Z,16.56
2019-05-25T21:00:47.418Z,16.75
2019-05-25T21:03:50.069Z,16.69
2019-05-25T21:06:52.680Z,16.87
2019-05-25T21:09:54.177Z,16.81
2019-05-25T21:12:55.834Z,16.44
2019-05-25T21:15:57.455Z,16.25
2019-05-25T21:19:02.346Z,16.50
2019-05-25T21:22:02.313Z,16.62
2019-05-25T21:25:05.817Z,16.62
2019-05-25T21:28:07.070Z,16.62
2019-05-25T21:31:08.600Z,16.19
2019-05-25T21:34:10.150Z,16.06
2019-05-25T21:37:11.684Z,15.69
2019-05-25T21:40:13.691Z,15.75
2019-05-25T21:43:15.202Z,15.56
2019-05-25T21:46:16.752Z,15.56
2019-05-25T21:49:18.353Z,15.69
2019-05-25T21:52:19.916Z,15.69
2019-05-25T21:55:21.438Z,15.63
2019-05-25T21:58:23.047Z,15.69
2019-05-25T22:01:24.725Z,15.69
2019-05-25T22:04:26.346Z,15.81
2019-05-25T22:07:27.890Z,15.81
2019-05-25T22:10:29.517Z,15.31
2019-05-25T22:13:31.079Z,15.44
2019-05-25T22:16:32.601Z,15.44
2019-05-25T22:19:34.168Z,15.50
2019-05-25T22:22:35.746Z,15.44
2019-05-25T22:25:37.308Z,15.56
2019-05-25T22:28:44.714Z,15.56
2019-05-25T22:31:42.131Z,15.25
2019-05-25T22:34:43.795Z,15.19
2019-05-25T22:37:45.395Z,14.75
2019-05-25T22:40:46.953Z,14.87
2019-05-25T22:43:48.478Z,14.56
2019-05-25T22:46:50.025Z,14.87
2019-05-25T22:49:51.689Z,15.00
2019-05-25T22:52:53.262Z,15.00
2019-05-25T22:55:54.786Z,14.81
2019-05-25T22:58:56.326Z,14.94
2019-05-25T23:01:57.851Z,14.94
2019-05-25T23:04:59.429Z,14.31
2019-05-25T23:08:00.978Z,14.06
2019-05-25T23:11:02.617Z,14.19
2019-05-25T23:14:04.251Z,14.63
2019-05-25T23:17:05.924Z,14.50
2019-05-25T23:20:07.992Z,14.19
2019-05-25T23:23:09.555Z,14.63
2019-05-25T23:26:11.078Z,13.81
2019-05-25T23:29:12.679Z,13.88
2019-05-25T23:32:14.309Z,14.06
2019-05-25T23:35:16.106Z,13.94
2019-05-25T23:38:20.687Z,14.06
2019-05-25T23:41:22.222Z,13.69
2019-05-25T23:44:23.755Z,14.00
2019-05-25T23:47:25.355Z,14.31
2019-05-25T23:50:26.969Z,13.81
2019-05-25T23:53:28.517Z,13.69
2019-05-25T23:56:30.085Z,13.50
2019-05-25T23:59:31.624Z,13.62
